Time;durP1;ratioP1;P1;durP2;ratioP2;P2;SDS_P1;SDS_P2;PMS_P1;PMS_P2;Temp;Humidity;BMP_temperature;BMP_pressure;BME280_temperature;BME280_humidity;BME280_pressure;Samples;Min_cycle;Max_cycle;Signal;HPM_P1;HPM_P2
2023/07/16 00:00:33;;;;;;;1.17;1.17;;;;;;;24.26;77.70;97219.84;5026190;28;20532;-69
2023/07/16 00:03:00;;;;;;;1.20;1.20;;;;;;;24.06;78.22;97197.44;5031575;28;20066;-69
2023/07/16 00:05:26;;;;;;;1.20;1.20;;;;;;;24.28;78.56;97243.59;5049549;28;20500;-70
2023/07/16 00:07:53;;;;;;;1.00;1.00;;;;;;;24.01;79.17;97232.00;5046280;28;20140;-70
2023/07/16 00:10:20;;;;;;;1.00;1.00;;;;;;;24.07;79.18;97230.19;5044673;28;20048;-69
2023/07/16 00:12:47;;;;;;;1.08;1.08;;;;;;;24.00;79.24;97213.44;5046181;28;20083;-70
2023/07/16 00:15:14;;;;;;;1.10;1.10;;;;;;;23.86;79.21;97189.19;5046361;28;20144;-70
2023/07/16 00:17:41;;;;;;;1.00;1.00;;;;;;;24.03;80.21;97225.91;5044442;28;20068;-70
2023/07/16 00:20:08;;;;;;;1.00;1.00;;;;;;;23.68;81.14;97205.16;5060974;28;20049;-70
2023/07/16 00:22:35;;;;;;;1.10;1.10;;;;;;;23.78;81.77;97229.47;5046129;28;20061;-70
2023/07/16 00:25:02;;;;;;;0.90;0.90;;;;;;;23.66;81.52;97218.97;5046159;28;20056;-70
2023/07/16 00:27:29;;;;;;;1.00;1.00;;;;;;;23.35;81.71;97170.66;5044856;28;20044;-69
2023/07/16 00:29:56;;;;;;;1.15;1.15;;;;;;;23.38;81.85;97174.59;5045831;28;20048;-70
2023/07/16 00:32:22;;;;;;;0.90;0.90;;;;;;;23.14;81.72;97136.56;5045595;28;20486;-70
2023/07/16 00:34:49;;;;;;;1.10;1.10;;;;;;;23.66;82.11;97224.63;5045844;28;20514;-69
2023/07/16 00:37:15;;;;;;;1.00;1.00;;;;;;;23.44;82.82;97206.75;5044523;28;20143;-69
2023/07/16 00:39:42;;;;;;;1.00;1.00;;;;;;;23.29;82.78;97197.09;5053559;28;20088;-70
2023/07/16 00:42:09;;;;;;;0.95;0.95;;;;;;;23.45;82.94;97233.75;5065232;28;20139;-70
2023/07/16 00:44:36;;;;;;;1.00;1.00;;;;;;;23.30;83.80;97218.50;5064360;28;20071;-69
2023/07/16 00:47:03;;;;;;;0.90;0.90;;;;;;;23.01;83.61;97180.97;5065662;28;20056;-70
2023/07/16 00:49:31;;;;;;;0.90;0.90;;;;;;;23.15;83.49;97203.16;5065494;28;20048;-70
2023/07/16 00:52:00;;;;;;;0.90;0.90;;;;;;;23.28;83.72;97218.13;5065185;28;20055;-69
2023/07/16 00:54:28;;;;;;;0.82;0.82;;;;;;;23.13;83.66;97203.59;5065597;28;20056;-70
2023/07/16 00:56:54;;;;;;;1.15;1.15;;;;;;;22.93;84.09;97193.72;5064879;28;20075;-70
2023/07/16 00:59:21;;;;;;;0.90;0.90;;;;;;;23.24;84.16;97220.22;5065561;28;20136;-69
2023/07/16 01:01:48;;;;;;;0.90;0.90;;;;;;;22.92;84.08;97186.50;5063315;28;20059;-70
2023/07/16 01:04:15;;;;;;;1.00;1.00;;;;;;;22.48;84.14;97102.63;5065063;28;20048;-68
2023/07/16 01:06:46;;;;;;;0.98;0.98;;;;;;;22.97;84.25;97188.78;5063886;28;20059;-69
2023/07/16 01:09:18;;;;;;;0.90;0.90;;;;;;;23.15;84.71;97211.63;5063762;28;20049;-70
2023/07/16 01:11:46;;;;;;;0.90;0.90;;;;;;;23.16;84.26;97213.19;5063650;28;20048;-69
2023/07/16 01:14:17;;;;;;;0.90;0.90;;;;;;;22.95;84.34;97185.59;5064912;28;20546;-70
2023/07/16 01:16:44;;;;;;;0.90;0.90;;;;;;;22.59;84.92;97142.66;5064994;28;20048;-68
2023/07/16 01:19:13;;;;;;;0.90;0.90;;;;;;;23.10;84.77;97220.66;5064638;28;20059;-69
2023/07/16 01:21:55;;;;;;;0.90;0.90;;;;;;;23.18;84.35;97217.19;5063676;28;20056;-69
2023/07/16 01:24:46;;;;;;;0.90;0.90;;;;;;;23.00;85.24;97219.72;5065340;28;20048;-70
2023/07/16 01:27:34;;;;;;;1.00;1.00;;;;;;;22.82;86.45;97221.47;5064915;28;20052;-70
2023/07/16 01:30:03;;;;;;;0.90;0.90;;;;;;;22.77;86.43;97219.19;5065367;28;20081;-69
2023/07/16 01:32:33;;;;;;;0.98;0.98;;;;;;;22.48;87.33;97196.56;5064589;28;20048;-69
2023/07/16 01:35:02;;;;;;;0.93;0.93;;;;;;;22.64;87.55;97204.22;5063456;28;20438;-70
2023/07/16 01:37:28;;;;;;;0.80;0.80;;;;;;;22.60;87.43;97203.53;5064496;28;20564;-70
2023/07/16 01:39:55;;;;;;;0.90;0.90;;;;;;;22.48;87.17;97190.16;5056255;28;20049;-69
2023/07/16 01:42:22;;;;;;;0.90;0.90;;;;;;;22.34;88.08;97191.31;5042796;28;20067;-70
2023/07/16 01:44:48;;;;;;;0.90;0.90;;;;;;;22.48;88.08;97205.03;5042920;28;20056;-70
2023/07/16 01:47:26;;;;;;;0.90;0.90;;;;;;;22.20;87.47;97163.47;5042922;28;20123;-69
2023/07/16 01:49:52;;;;;;;0.95;0.95;;;;;;;22.30;87.53;97182.94;5044942;28;20538;-70
2023/07/16 01:52:19;;;;;;;0.90;0.90;;;;;;;22.22;88.43;97175.88;5042931;28;20048;-69
2023/07/16 01:54:46;;;;;;;0.90;0.90;;;;;;;22.43;88.23;97212.03;5044546;28;20052;-70
2023/07/16 01:57:12;;;;;;;0.90;0.90;;;;;;;22.13;88.17;97167.25;5043036;28;20064;-69
2023/07/16 01:59:39;;;;;;;0.90;0.90;;;;;;;22.27;87.09;97181.00;5044551;28;20091;-70
2023/07/16 02:02:06;;;;;;;0.90;0.90;;;;;;;22.48;87.68;97207.84;5043870;28;20052;-70
2023/07/16 02:04:33;;;;;;;0.90;0.90;;;;;;;22.45;87.69;97208.75;5044691;28;20111;-69
2023/07/16 02:06:59;;;;;;;0.90;0.90;;;;;;;22.36;87.68;97206.59;5042916;28;20132;-70
2023/07/16 02:09:26;;;;;;;0.82;0.82;;;;;;;21.99;87.53;97133.78;5043890;28;20048;-69
2023/07/16 02:11:53;;;;;;;0.80;0.80;;;;;;;22.46;87.52;97199.84;5044408;28;20045;-70
2023/07/16 02:14:20;;;;;;;0.80;0.80;;;;;;;22.40;87.85;97207.25;5044398;28;20045;-70
2023/07/16 02:16:46;;;;;;;0.90;0.90;;;;;;;22.31;87.94;97209.94;5043668;28;20381;-69
2023/07/16 02:19:13;;;;;;;0.90;0.90;;;;;;;22.05;88.39;97185.63;5044082;28;20064;-69
2023/07/16 02:21:40;;;;;;;0.90;0.90;;;;;;;22.12;89.44;97193.09;5043991;28;20083;-69
2023/07/16 02:24:06;;;;;;;0.82;0.82;;;;;;;22.15;89.37;97212.78;5043925;28;20075;-70
2023/07/16 02:26:33;;;;;;;0.88;0.88;;;;;;;22.06;89.43;97178.75;5042050;28;20048;-69
2023/07/16 02:29:00;;;;;;;0.90;0.90;;;;;;;21.86;89.19;97155.47;5043828;28;20095;-69
2023/07/16 02:31:26;;;;;;;0.90;0.90;;;;;;;21.86;89.90;97172.41;5043998;28;20045;-69
2023/07/16 02:33:53;;;;;;;0.80;0.80;;;;;;;21.95;90.53;97197.97;5042327;28;20048;-69
2023/07/16 02:36:20;;;;;;;1.00;1.00;;;;;;;22.02;90.81;97206.25;5043063;28;20431;-69
2023/07/16 02:38:47;;;;;;;0.80;0.80;;;;;;;21.86;89.91;97186.50;5043480;28;20044;-69
2023/07/16 02:41:13;;;;;;;0.80;0.80;;;;;;;21.95;90.32;97214.09;5062493;28;20067;-70
2023/07/16 02:43:40;;;;;;;0.85;0.85;;;;;;;21.37;90.49;97133.34;5063141;28;20065;-68
2023/07/16 02:46:06;;;;;;;0.90;0.90;;;;;;;21.46;90.35;97153.25;5063132;28;20055;-68
2023/07/16 02:48:33;;;;;;;0.80;0.80;;;;;;;21.76;90.08;97196.03;5063861;28;20053;-69
2023/07/16 02:51:00;;;;;;;0.80;0.80;;;;;;;21.88;90.38;97215.06;5062981;28;20052;-68
2023/07/16 02:53:26;;;;;;;0.80;0.80;;;;;;;22.02;90.11;97226.00;5055234;28;20051;-70
2023/07/16 02:55:53;;;;;;;0.98;0.98;;;;;;;21.86;90.13;97200.59;5063388;28;20094;-69
2023/07/16 02:58:20;;;;;;;0.90;0.90;;;;;;;21.78;89.74;97187.91;5062153;28;20050;-69
2023/07/16 03:00:46;;;;;;;0.90;0.90;;;;;;;20.03;90.11;96944.88;5063579;28;20139;-69
2023/07/16 03:03:13;;;;;;;0.80;0.80;;;;;;;21.61;90.69;97194.75;5061834;28;20113;-69
2023/07/16 03:05:40;;;;;;;0.90;0.90;;;;;;;20.99;91.32;97118.94;5063338;28;20088;-69
2023/07/16 03:08:07;;;;;;;0.80;0.80;;;;;;;21.65;90.87;97223.69;5063322;28;20518;-69
2023/07/16 03:10:33;;;;;;;0.80;0.80;;;;;;;21.08;90.81;97138.84;5061830;28;20048;-69
2023/07/16 03:13:00;;;;;;;0.98;0.98;;;;;;;21.63;91.20;97225.31;5062273;28;20056;-69
2023/07/16 03:15:27;;;;;;;0.88;0.88;;;;;;;21.58;91.51;97226.66;5063490;28;20041;-69
2023/07/16 03:17:53;;;;;;;0.80;0.80;;;;;;;21.45;90.72;97185.50;5061790;28;20044;-69
2023/07/16 03:20:20;;;;;;;0.90;0.90;;;;;;;21.70;90.71;97231.63;5063416;28;20598;-69
2023/07/16 03:22:47;;;;;;;0.90;0.90;;;;;;;21.70;90.95;97230.81;5067197;28;20053;-68
2023/07/16 03:25:15;;;;;;;0.85;0.85;;;;;;;21.77;90.63;97231.47;5067245;28;20135;-69
2023/07/16 03:27:41;;;;;;;0.90;0.90;;;;;;;21.75;90.78;97239.56;5067511;28;20060;-69
2023/07/16 03:30:08;;;;;;;0.80;0.80;;;;;;;21.67;89.95;97198.63;5066982;28;20057;-69
2023/07/16 03:32:35;;;;;;;0.88;0.88;;;;;;;21.97;89.03;97223.69;5065861;28;20145;-69
2023/07/16 03:35:18;;;;;;;0.90;0.90;;;;;;;21.92;89.12;97215.00;5066857;28;20051;-70
2023/07/16 03:37:45;;;;;;;0.90;0.90;;;;;;;21.55;88.18;97151.41;5067125;28;20214;-69
2023/07/16 03:40:16;;;;;;;1.05;1.05;;;;;;;21.59;87.95;97157.72;5056732;28;20044;-70
2023/07/16 03:42:43;;;;;;;0.90;0.90;;;;;;;21.97;88.25;97218.06;5046791;28;20139;-69
2023/07/16 03:45:10;;;;;;;0.80;0.80;;;;;;;22.08;88.59;97229.88;5046906;28;20085;-69
2023/07/16 03:47:37;;;;;;;0.90;0.90;;;;;;;22.20;88.03;97237.66;5046860;28;20049;-70
2023/07/16 03:50:05;;;;;;;0.90;0.90;;;;;;;21.99;87.48;97209.97;5047141;28;20131;-69
2023/07/16 03:52:32;;;;;;;0.80;0.80;;;;;;;22.17;87.18;97223.63;5045553;28;20210;-70
2023/07/16 03:54:58;;;;;;;0.88;0.88;;;;;;;22.24;86.01;97212.94;5046652;28;20574;-70
2023/07/16 03:57:28;;;;;;;0.90;0.90;;;;;;;22.41;86.24;97247.59;5046178;28;20056;-69
2023/07/16 03:59:55;;;;;;;0.90;0.90;;;;;;;22.30;85.96;97222.44;5046779;28;20110;-69
2023/07/16 04:02:23;;;;;;;0.90;0.90;;;;;;;22.53;85.00;97243.25;5046667;28;20053;-70
2023/07/16 04:04:50;;;;;;;1.02;1.02;;;;;;;22.46;85.43;97238.59;5044772;28;20055;-70
2023/07/16 04:07:17;;;;;;;1.00;1.00;;;;;;;22.47;85.73;97234.53;5031157;28;20539;-70
2023/07/16 04:09:44;;;;;;;0.90;0.90;;;;;;;22.66;85.04;97246.94;5026582;28;20053;-70
2023/07/16 04:12:11;;;;;;;1.00;1.00;;;;;;;22.82;83.71;97244.88;5026243;28;20067;-70
2023/07/16 04:14:37;;;;;;;0.98;0.98;;;;;;;22.60;83.13;97193.06;5026554;28;20053;-70
2023/07/16 04:17:04;;;;;;;1.08;1.08;;;;;;;21.60;82.25;97015.56;5025951;28;20064;-70
2023/07/16 04:19:31;;;;;;;0.88;0.88;;;;;;;23.14;82.83;97246.81;5026180;28;20065;-70
2023/07/16 04:21:58;;;;;;;1.00;1.00;;;;;;;23.23;82.19;97258.25;5026517;28;20077;-69
2023/07/16 04:24:26;;;;;;;1.00;1.00;;;;;;;23.29;81.96;97247.97;5024968;28;20140;-70
2023/07/16 04:26:54;;;;;;;0.90;0.90;;;;;;;22.92;81.86;97226.81;5025890;28;20061;-68
2023/07/16 04:29:21;;;;;;;1.00;1.00;;;;;;;23.48;80.83;97242.16;5026230;28;20332;-68
2023/07/16 04:31:47;;;;;;;1.02;1.02;;;;;;;23.58;80.15;97246.66;5040094;28;20810;-70
2023/07/16 04:34:14;;;;;;;1.00;1.00;;;;;;;23.50;80.12;97236.03;5024086;28;20136;-70
2023/07/16 04:36:42;;;;;;;1.00;1.00;;;;;;;23.58;79.15;97223.25;5025863;28;20056;-70
2023/07/16 04:39:09;;;;;;;1.20;1.20;;;;;;;23.43;78.67;97174.84;5043096;28;20773;-70
2023/07/16 04:41:36;;;;;;;1.10;1.10;;;;;;;24.14;78.28;97255.41;5063865;28;20052;-69
2023/07/16 04:44:04;;;;;;;1.17;1.17;;;;;;;24.21;77.66;97246.69;5065721;28;20499;-70
2023/07/16 04:46:31;;;;;;;1.10;1.10;;;;;;;24.25;76.68;97233.19;5064221;28;20045;-70
2023/07/16 04:48:57;;;;;;;1.13;1.13;;;;;;;24.54;76.69;97267.81;5064471;28;20135;-69
2023/07/16 04:51:24;;;;;;;1.10;1.10;;;;;;;24.50;76.26;97244.47;5065763;28;20063;-71
2023/07/16 04:53:51;;;;;;;1.10;1.10;;;;;;;24.82;75.66;97261.19;5065675;28;20063;-70
2023/07/16 04:56:17;;;;;;;1.15;1.15;;;;;;;25.06;74.81;97253.03;5063887;28;20062;-70
2023/07/16 04:58:45;;;;;;;1.20;1.20;;;;;;;24.99;73.50;97205.88;5065488;28;20052;-70
2023/07/16 05:01:11;;;;;;;1.30;1.30;;;;;;;25.60;72.39;97247.75;5063943;28;20048;-71
2023/07/16 05:03:38;;;;;;;1.27;1.27;;;;;;;25.73;71.15;97239.13;5065478;28;20059;-70
2023/07/16 05:06:05;;;;;;;1.25;1.25;;;;;;;25.73;70.39;97244.81;5075486;28;20529;-70
2023/07/16 05:08:32;;;;;;;1.15;1.15;;;;;;;25.94;68.76;97247.59;5063487;28;20147;-71
2023/07/16 05:10:59;;;;;;;1.33;1.33;;;;;;;26.18;68.62;97248.66;5064575;28;20056;-70
2023/07/16 05:13:26;;;;;;;1.30;1.30;;;;;;;26.32;67.83;97247.28;5063681;28;20140;-70
2023/07/16 05:15:52;;;;;;;1.23;1.23;;;;;;;26.23;67.00;97224.53;5064857;28;20127;-68
2023/07/16 05:18:21;;;;;;;1.40;1.40;;;;;;;26.29;67.36;97206.38;5063542;28;20675;-68
2023/07/16 05:20:48;;;;;;;1.48;1.48;;;;;;;26.57;65.82;97213.69;5064867;28;20053;-69
2023/07/16 05:23:15;;;;;;;1.58;1.58;;;;;;;26.91;65.19;97226.84;5064183;28;20052;-70
2023/07/16 05:25:47;;;;;;;1.20;1.20;;;;;;;27.19;63.99;97256.84;5043919;28;20516;-70
2023/07/16 05:28:18;;;;;;;1.40;1.40;;;;;;;27.00;63.17;97203.31;5024831;28;20530;-70
2023/07/16 05:30:45;;;;;;;1.60;1.60;;;;;;;27.36;61.73;97235.34;5024978;28;20190;-69
2023/07/16 05:33:11;;;;;;;1.50;1.50;;;;;;;27.45;60.20;97249.59;5024638;28;20076;-70
2023/07/16 05:35:41;;;;;;;1.40;1.40;;;;;;;27.49;60.24;97250.22;5024557;28;20149;-68
2023/07/16 05:38:08;;;;;;;1.70;1.70;;;;;;;27.59;60.14;97254.63;5024541;28;20046;-69
2023/07/16 05:40:35;;;;;;;1.65;1.65;;;;;;;27.56;60.50;97227.13;5042469;28;20525;-69
2023/07/16 05:43:01;;;;;;;1.55;1.55;;;;;;;27.87;60.30;97253.25;5063334;28;20126;-69
2023/07/16 05:45:29;;;;;;;1.77;1.77;;;;;;;27.93;60.54;97251.38;5062798;28;20052;-69
2023/07/16 05:47:56;;;;;;;1.48;1.48;;;;;;;28.10;60.42;97255.44;5064646;28;20052;-69
2023/07/16 05:50:22;;;;;;;1.60;1.60;;;;;;;28.10;58.82;97254.63;5064603;28;20268;-70
2023/07/16 05:52:49;;;;;;;1.60;1.60;;;;;;;28.18;59.25;97256.63;5064604;28;20067;-68
2023/07/16 05:55:17;;;;;;;1.63;1.63;;;;;;;27.95;59.19;97226.06;5062547;28;20135;-70
2023/07/16 05:57:44;;;;;;;1.70;1.70;;;;;;;28.08;59.33;97240.88;5064424;28;20044;-69
2023/07/16 06:00:11;;;;;;;1.40;1.40;;;;;;;28.34;59.94;97251.81;5064019;28;20059;-70
2023/07/16 06:02:37;;;;;;;1.52;1.52;;;;;;;28.56;59.15;97261.72;5064539;28;20079;-69
2023/07/16 06:05:05;;;;;;;1.50;1.50;;;;;;;28.26;59.94;97205.00;5064275;28;20084;-70
2023/07/16 06:07:32;;;;;;;1.50;1.50;;;;;;;28.70;58.40;97263.03;5064092;28;20057;-70
2023/07/16 06:09:59;;;;;;;1.55;1.55;;;;;;;28.69;58.42;97261.47;5064197;28;20560;-71
2023/07/16 06:12:26;;;;;;;1.50;1.50;;;;;;;28.63;57.93;97217.78;5063595;28;20538;-71
2023/07/16 06:14:53;;;;;;;1.52;1.52;;;;;;;29.06;57.28;97257.06;5064385;28;20131;-71
2023/07/16 06:17:19;;;;;;;1.90;1.90;;;;;;;29.32;55.74;97258.91;5062143;28;20044;-69
2023/07/16 06:19:49;;;;;;;1.75;1.75;;;;;;;29.05;54.37;97181.31;5064146;28;20049;-69
2023/07/16 06:22:16;;;;;;;1.52;1.52;;;;;;;29.33;52.22;97222.59;5061791;28;20514;-68
2023/07/16 06:24:43;;;;;;;1.80;1.80;;;;;;;28.83;53.95;97249.31;5062228;28;20123;-71
2023/07/16 06:27:10;;;;;;;1.70;1.70;;;;;;;29.03;54.66;97263.75;5063591;28;20057;-71
2023/07/16 06:29:36;;;;;;;1.55;1.55;;;;;;;29.18;52.89;97236.06;5063317;28;20132;-70
2023/07/16 06:32:04;;;;;;;1.60;1.60;;;;;;;29.69;49.90;97253.66;5062498;28;20425;-71
2023/07/16 06:34:30;;;;;;;1.60;1.60;;;;;;;29.95;47.76;97254.66;5063768;28;20538;-70
2023/07/16 06:36:57;;;;;;;1.65;1.65;;;;;;;30.17;48.48;97249.28;5063725;28;20048;-70
2023/07/16 06:39:24;;;;;;;1.90;1.90;;;;;;;29.78;49.06;97187.88;5063652;28;20044;-69
2023/07/16 06:41:51;;;;;;;2.03;2.03;;;;;;;30.26;48.74;97229.19;5042662;28;20056;-69
2023/07/16 06:44:19;;;;;;;1.83;1.83;;;;;;;28.66;49.80;97011.53;5043097;28;20052;-68
2023/07/16 06:46:45;;;;;;;1.63;1.63;;;;;;;30.26;49.23;97219.81;5042385;28;20049;-70
2023/07/16 06:49:12;;;;;;;1.65;1.65;;;;;;;30.20;50.80;97219.72;5042671;28;20056;-70
2023/07/16 06:51:39;;;;;;;1.90;1.90;;;;;;;30.36;50.35;97204.91;5041927;28;20426;-69
2023/07/16 06:54:07;;;;;;;1.67;1.67;;;;;;;30.43;50.78;97213.06;5042353;28;20052;-70
2023/07/16 06:56:33;;;;;;;1.90;1.90;;;;;;;30.75;49.67;97231.97;5041611;28;20053;-70
2023/07/16 06:59:00;;;;;;;1.63;1.63;;;;;;;29.37;49.50;97040.50;5043609;28;20067;-71
2023/07/16 07:01:27;;;;;;;1.90;1.90;;;;;;;30.52;50.13;97230.09;5043530;28;20084;-70
2023/07/16 07:03:54;;;;;;;1.65;1.65;;;;;;;30.18;50.23;97182.25;5043425;28;20130;-70
2023/07/16 07:06:22;;;;;;;1.58;1.58;;;;;;;29.80;52.53;97245.28;5043248;28;21174;-70
2023/07/16 07:08:51;;;;;;;1.90;1.90;;;;;;;29.57;52.56;97137.63;5043266;28;20272;-69
2023/07/16 07:11:18;;;;;;;1.70;1.70;;;;;;;30.53;51.25;97237.38;5043675;28;20057;-70
2023/07/16 07:13:44;;;;;;;1.90;1.90;;;;;;;30.29;50.68;97182.44;5043169;28;20049;-70
2023/07/16 07:16:11;;;;;;;1.85;1.85;;;;;;;30.78;50.34;97241.63;5043101;28;20530;-70
2023/07/16 07:18:38;;;;;;;1.73;1.73;;;;;;;30.42;50.22;97162.88;5043585;28;20053;-69
2023/07/16 07:21:04;;;;;;;1.90;1.90;;;;;;;30.97;49.14;97233.56;5043043;28;20060;-71
2023/07/16 07:23:31;;;;;;;1.90;1.90;;;;;;;30.76;50.26;97233.56;5041622;28;20063;-71
2023/07/16 07:25:59;;;;;;;1.80;1.80;;;;;;;30.60;49.97;97173.25;5043099;28;20155;-71
2023/07/16 07:28:27;;;;;;;1.98;1.98;;;;;;;30.79;48.85;97208.91;5042624;28;20053;-71
2023/07/16 07:30:54;;;;;;;2.00;2.00;;;;;;;30.65;49.47;97226.88;5042923;28;20048;-71
2023/07/16 07:33:21;;;;;;;1.80;1.80;;;;;;;30.81;49.43;97235.72;5041820;28;20053;-71
2023/07/16 07:35:48;;;;;;;1.83;1.83;;;;;;;30.98;48.31;97199.50;5042891;28;20049;-70
2023/07/16 07:38:15;;;;;;;1.73;1.73;;;;;;;30.53;50.00;97202.25;5042076;28;20053;-71
2023/07/16 07:40:45;;;;;;;1.55;1.55;;;;;;;28.89;51.12;97042.00;5051223;28;20502;-73
2023/07/16 07:43:11;;;;;;;1.70;1.70;;;;;;;29.79;52.66;97238.00;5062805;28;20084;-70
2023/07/16 07:45:38;;;;;;;1.70;1.70;;;;;;;30.07;50.57;97173.50;5062012;28;20079;-72
2023/07/16 07:48:05;;;;;;;2.00;2.00;;;;;;;30.79;49.34;97209.66;5061626;28;20056;-71
2023/07/16 07:50:32;;;;;;;1.83;1.83;;;;;;;31.34;48.18;97221.03;5062821;28;20059;-73
2023/07/16 07:52:58;;;;;;;1.70;1.70;;;;;;;31.61;47.03;97222.59;5063583;28;20056;-71
2023/07/16 07:55:25;;;;;;;2.00;2.00;;;;;;;31.53;46.87;97187.09;5062957;28;20063;-71
2023/07/16 07:57:52;;;;;;;1.70;1.70;;;;;;;31.22;46.85;97149.81;5058484;28;20669;-71
2023/07/16 08:00:19;;;;;;;1.88;1.88;;;;;;;31.66;46.76;97213.28;5061048;28;20052;-71
2023/07/16 08:02:46;;;;;;;1.90;1.90;;;;;;;31.82;46.79;97221.22;5061442;28;20048;-71
2023/07/16 08:05:13;;;;;;;2.13;2.13;;;;;;;31.58;47.17;97160.59;5062667;28;20044;-69
2023/07/16 08:07:40;;;;;;;1.73;1.73;;;;;;;32.10;46.70;97222.28;5064719;28;20044;-69
2023/07/16 08:10:07;;;;;;;1.80;1.80;;;;;;;32.07;46.73;97226.94;5066120;28;20056;-70
2023/07/16 08:12:34;;;;;;;1.88;1.88;;;;;;;32.13;46.41;97195.44;5063157;28;20606;-71
2023/07/16 08:15:01;;;;;;;1.63;1.63;;;;;;;31.93;45.86;97193.47;5074338;28;20052;-70
2023/07/16 08:17:27;;;;;;;2.03;2.03;;;;;;;32.51;45.46;97229.38;5066191;28;20127;-71
2023/07/16 08:19:54;;;;;;;1.95;1.95;;;;;;;32.46;44.75;97195.69;5066371;28;20394;-70
2023/07/16 08:22:23;;;;;;;1.80;1.80;;;;;;;32.69;44.24;97226.06;5065501;28;20044;-69
2023/07/16 08:24:51;;;;;;;2.13;2.13;;;;;;;32.79;43.64;97227.44;5064655;28;20600;-69
2023/07/16 08:27:19;;;;;;;1.70;1.70;;;;;;;32.90;43.50;97230.38;5065392;28;20658;-72
2023/07/16 08:29:46;;;;;;;1.85;1.85;;;;;;;32.64;44.41;97223.97;5064228;28;20048;-72
2023/07/16 08:32:13;;;;;;;2.00;2.00;;;;;;;32.85;44.31;97216.75;5065558;28;20497;-73
2023/07/16 08:34:39;;;;;;;1.95;1.95;;;;;;;32.86;44.45;97185.97;5065631;28;20052;-74
2023/07/16 08:37:06;;;;;;;1.85;1.85;;;;;;;33.31;43.78;97219.28;5065384;28;20131;-74
2023/07/16 08:39:33;;;;;;;1.70;1.70;;;;;;;32.93;43.67;97197.78;5064179;28;20080;-74
2023/07/16 08:42:01;;;;;;;2.50;2.40;;;;;;;32.72;43.63;97141.84;5046481;28;20060;-72
2023/07/16 08:44:29;;;;;;;2.08;2.08;;;;;;;33.10;42.80;97210.09;5045718;28;20060;-72
2023/07/16 08:46:56;;;;;;;1.85;1.85;;;;;;;32.92;43.30;97213.44;5045181;28;20053;-71
2023/07/16 08:49:23;;;;;;;1.90;1.90;;;;;;;32.64;43.80;97206.75;5043381;28;20052;-72
2023/07/16 08:51:51;;;;;;;2.20;2.20;;;;;;;32.58;44.48;97208.03;5045838;28;20068;-73
2023/07/16 08:54:19;;;;;;;1.85;1.85;;;;;;;32.61;43.69;97207.78;5044091;28;20143;-72
2023/07/16 08:56:47;;;;;;;1.80;1.80;;;;;;;32.56;43.81;97193.41;5045633;28;20657;-73
2023/07/16 08:59:15;;;;;;;1.70;1.70;;;;;;;32.41;43.21;97162.00;5045494;28;20049;-73
2023/07/16 09:01:41;;;;;;;1.77;1.77;;;;;;;32.86;43.04;97209.72;5045550;28;20793;-73
2023/07/16 09:04:08;;;;;;;1.75;1.75;;;;;;;32.48;42.81;97138.59;5045348;28;20073;-75
2023/07/16 09:06:35;;;;;;;2.10;2.10;;;;;;;33.07;43.29;97207.50;5045339;28;20076;-72
2023/07/16 09:09:02;;;;;;;1.67;1.67;;;;;;;32.83;43.24;97150.47;5045599;28;20539;-73
2023/07/16 09:11:28;;;;;;;2.08;2.08;;;;;;;33.41;42.78;97212.84;5044791;28;20049;-75
2023/07/16 09:13:55;;;;;;;1.55;1.55;;;;;;;33.81;41.86;97216.56;5045265;28;20061;-72
2023/07/16 09:16:22;;;;;;;2.00;2.00;;;;;;;33.68;41.02;97174.75;5043541;28;20467;-72
2023/07/16 09:18:48;;;;;;;2.15;2.15;;;;;;;34.00;40.83;97200.38;5044108;28;20518;-71
2023/07/16 09:21:15;;;;;;;1.88;1.88;;;;;;;34.21;40.00;97195.94;5026416;28;20053;-71
2023/07/16 09:23:42;;;;;;;2.15;2.15;;;;;;;34.39;40.14;97201.94;5025064;28;20059;-71
2023/07/16 09:26:09;;;;;;;1.77;1.77;;;;;;;34.29;39.72;97199.84;5025248;28;20080;-72
2023/07/16 09:28:36;;;;;;;1.90;1.90;;;;;;;33.73;40.37;97176.81;5025241;28;20136;-71
2023/07/16 09:31:07;;;;;;;2.00;2.00;;;;;;;34.13;41.07;97192.00;5023578;28;20402;-71
2023/07/16 09:33:34;;;;;;;1.98;1.98;;;;;;;33.03;43.08;97176.16;5025342;28;20056;-71
2023/07/16 09:36:02;;;;;;;1.80;1.80;;;;;;;33.52;41.35;97189.88;5023150;28;20049;-70
2023/07/16 09:38:30;;;;;;;2.20;2.20;;;;;;;32.81;42.31;97199.00;5024818;28;20058;-70
2023/07/16 09:40:56;;;;;;;1.90;1.90;;;;;;;32.33;42.79;97175.22;5037541;28;20040;-70
2023/07/16 09:43:23;;;;;;;1.92;1.92;;;;;;;31.74;43.91;97180.00;5064634;28;20322;-70
2023/07/16 09:45:50;;;;;;;1.73;1.73;;;;;;;32.63;42.90;97185.09;5064872;28;20082;-71
2023/07/16 09:48:17;;;;;;;1.70;1.70;;;;;;;32.59;43.08;97155.84;5063001;28;20581;-70
2023/07/16 09:50:52;;;;;;;1.90;1.90;;;;;;;33.28;42.38;97186.66;5064045;28;20083;-70
2023/07/16 09:53:21;;;;;;;1.70;1.70;;;;;;;33.39;41.68;97175.22;5064503;28;20055;-71
2023/07/16 09:55:49;;;;;;;1.60;1.60;;;;;;;32.98;43.01;97168.31;5063261;28;20614;-70
2023/07/16 09:58:19;;;;;;;1.83;1.83;;;;;;;33.21;41.60;97158.44;5062630;28;20059;-70
2023/07/16 10:00:48;;;;;;;1.80;1.80;;;;;;;33.56;41.45;97155.91;5062473;28;20132;-70
2023/07/16 10:03:16;;;;;;;2.55;2.45;;;;;;;34.20;40.28;97177.09;5062282;28;20084;-72
2023/07/16 10:05:44;;;;;;;1.80;1.80;;;;;;;34.17;40.02;97132.13;5063786;28;20106;-74
2023/07/16 10:08:18;;;;;;;1.92;1.92;;;;;;;34.45;39.33;97132.84;5064149;28;20107;-73
2023/07/16 10:10:58;;;;;;;2.38;2.38;;;;;;;34.99;38.93;97165.66;5061715;28;20052;-74
2023/07/16 10:13:25;;;;;;;2.08;2.08;;;;;;;34.99;38.77;97157.00;5064136;28;20052;-74
2023/07/16 10:15:56;;;;;;;2.08;2.08;;;;;;;35.08;39.67;97145.16;5063622;28;20052;-74
2023/07/16 10:18:30;;;;;;;2.35;2.35;;;;;;;33.98;40.40;97122.47;5064011;28;20072;-73
2023/07/16 10:21:08;;;;;;;2.25;2.25;;;;;;;33.88;41.22;97130.56;5064537;28;20041;-72
2023/07/16 10:23:40;;;;;;;1.75;1.75;;;;;;;34.45;40.13;97150.91;5064055;28;20072;-73
2023/07/16 10:26:10;;;;;;;2.08;2.08;;;;;;;34.82;38.91;97099.47;5062593;28;20048;-73
2023/07/16 10:28:38;;;;;;;1.77;1.77;;;;;;;34.98;37.73;97089.22;5063844;28;20057;-73
2023/07/16 10:31:07;;;;;;;2.10;2.10;;;;;;;35.70;37.53;97143.47;5061709;28;20064;-72
2023/07/16 10:33:37;;;;;;;2.17;2.17;;;;;;;35.69;37.43;97119.63;5063854;28;20134;-72
2023/07/16 10:36:04;;;;;;;2.20;2.20;;;;;;;35.89;36.24;97132.84;5063744;28;20064;-73
2023/07/16 10:38:40;;;;;;;1.98;1.98;;;;;;;35.62;37.14;97131.72;5063756;28;20070;-70
2023/07/16 10:41:07;;;;;;;1.88;1.88;;;;;;;34.45;39.61;97132.84;5056039;28;20535;-72
2023/07/16 10:43:34;;;;;;;2.15;2.15;;;;;;;35.04;38.35;97131.06;5043583;28;20072;-73
2023/07/16 10:46:02;;;;;;;1.75;1.75;;;;;;;35.57;37.60;97123.91;5043592;28;20151;-73
2023/07/16 10:48:29;;;;;;;1.88;1.88;;;;;;;35.43;37.49;97124.28;5043130;28;20135;-73
2023/07/16 10:50:56;;;;;;;2.22;2.22;;;;;;;34.95;38.06;97124.84;5043889;28;20136;-73
2023/07/16 10:53:23;;;;;;;2.05;2.05;;;;;;;34.74;38.51;97120.72;5043124;28;20049;-72
2023/07/16 10:55:49;;;;;;;1.90;1.90;;;;;;;35.17;38.26;97130.47;5044052;28;20523;-72
2023/07/16 10:58:16;;;;;;;2.20;2.20;;;;;;;35.73;37.06;97120.09;5043634;28;20059;-73
2023/07/16 11:00:44;;;;;;;1.88;1.88;;;;;;;36.03;37.12;97120.91;5042241;28;20045;-72
2023/07/16 11:03:16;;;;;;;2.20;2.20;;;;;;;35.47;37.64;97119.81;5043750;28;20127;-72
2023/07/16 11:05:46;;;;;;;2.58;2.47;;;;;;;35.83;36.39;97112.72;5043918;28;20080;-73
2023/07/16 11:08:24;;;;;;;1.92;1.92;;;;;;;36.23;36.72;97123.31;5044070;28;20045;-73
2023/07/16 11:10:57;;;;;;;2.00;2.00;;;;;;;35.36;37.89;97105.47;5043365;28;20055;-74
2023/07/16 11:13:28;;;;;;;2.33;2.30;;;;;;;35.01;37.14;97039.19;5043274;28;20484;-73
2023/07/16 11:15:55;;;;;;;2.20;2.20;;;;;;;34.99;38.14;97036.03;5043468;28;20057;-74
2023/07/16 11:18:24;;;;;;;2.25;2.25;;;;;;;35.72;36.68;97071.63;5042981;28;20127;-74
2023/07/16 11:20:54;;;;;;;2.22;2.22;;;;;;;35.69;37.08;97099.44;5041856;28;20059;-73
2023/07/16 11:23:22;;;;;;;1.77;1.77;;;;;;;35.81;36.53;97083.59;5042954;28;20091;-73
2023/07/16 11:25:49;;;;;;;2.20;2.20;;;;;;;35.90;36.74;97083.28;5043152;28;20144;-73
2023/07/16 11:28:16;;;;;;;2.00;2.00;;;;;;;36.05;35.63;97049.03;5028622;28;20067;-72
2023/07/16 11:30:43;;;;;;;2.25;2.25;;;;;;;36.55;35.60;97085.22;5003629;28;20073;-73
2023/07/16 11:33:13;;;;;;;2.58;2.47;;;;;;;36.96;35.58;97068.41;5003688;28;20108;-72
2023/07/16 11:35:40;;;;;;;2.20;2.20;;;;;;;37.51;34.13;97067.59;5003472;28;20582;-74